Terminal Aerodrome Forecast
Issued by NWS

Home | Current Version | Previous Version | Text Only | Print | Product List | Glossary Off
Versions: 1 2 3 4 5 6 7 8 9 10 11 12 13 14 15 16 17 18 19 20 21 22 23 24 25 26 27 28 29

712
FTUS43 KLOT 161407 AAA
TAFORD
TAF AMD
KORD 161407Z 1614/1718 29014G22KT 5SM -SHSN BR OVC016
      TEMPO 1614/1617 2SM -SHSN BR
     FM161700 30016G26KT 5SM -SHSN OVC015
      TEMPO 1617/1621 2SM -SHSN OVC010
     FM162100 30015G25KT P6SM -SHSN BKN025
     FM170100 29013G23KT P6SM BKN035
     FM171200 31010KT P6SM SCT070=

USA.gov is the U.S. government's official web portal to all federal, state and local government web resources and services.